Time;durP1;ratioP1;P1;durP2;ratioP2;P2;SDS_P1;SDS_P2;PMS_P1;PMS_P2;Temp;Humidity;BMP_temperature;BMP_pressure;BME280_temperature;BME280_humidity;BME280_pressure;Samples;Min_cycle;Max_cycle;Signal;HPM_P1;HPM_P2
2023/01/22 00:01:19;;;;;;;4.30;2.73;;;;;;;;;;5070555;28;20343;-57
2023/01/22 00:03:47;;;;;;;6.17;3.50;;;;;;;;;;5070068;28;20235;-58
2023/01/22 00:06:14;;;;;;;4.47;3.20;;;;;;;;;;5058565;28;20238;-58
2023/01/22 00:08:41;;;;;;;5.03;3.13;;;;;;;;;;5079539;28;20244;-57
2023/01/22 00:11:08;;;;;;;5.83;3.30;;;;;;;;;;5070128;28;20249;-58
2023/01/22 00:13:36;;;;;;;3.87;3.30;;;;;;;;;;5065827;28;20230;-57
2023/01/22 00:16:02;;;;;;;4.03;2.90;;;;;;;;;;5077521;28;20241;-58
2023/01/22 00:18:29;;;;;;;4.20;3.20;;;;;;;;;;5076490;28;20758;-58
2023/01/22 00:20:55;;;;;;;5.43;3.90;;;;;;;;;;5064793;28;20242;-58
2023/01/22 00:23:22;;;;;;;5.23;4.13;;;;;;;;;;5080264;28;20234;-58
2023/01/22 00:25:49;;;;;;;3.30;2.63;;;;;;;;;;5077577;28;20244;-58
2023/01/22 00:28:16;;;;;;;4.20;3.30;;;;;;;;;;5073148;28;20704;-58
2023/01/22 00:30:45;;;;;;;4.13;3.03;;;;;;;;;;5062844;28;20713;-58
2023/01/22 00:33:11;;;;;;;3.40;2.70;;;;;;;;;;5059783;28;20245;-58
2023/01/22 00:35:38;;;;;;;3.40;3.10;;;;;;;;;;5071799;28;20320;-58
2023/01/22 00:38:06;;;;;;;3.43;3.13;;;;;;;;;;5069530;28;20230;-59
2023/01/22 00:40:32;;;;;;;3.93;2.97;;;;;;;;;;5069486;28;20235;-58
2023/01/22 00:42:59;;;;;;;4.17;2.70;;;;;;;;;;5068073;28;20238;-57
2023/01/22 00:45:25;;;;;;;6.10;3.20;;;;;;;;;;5056943;28;20775;-58
2023/01/22 00:47:53;;;;;;;4.67;3.00;;;;;;;;;;5057829;28;20295;-57
2023/01/22 00:50:20;;;;;;;5.57;2.80;;;;;;;;;;5078722;28;20249;-58
2023/01/22 00:52:47;;;;;;;4.93;2.40;;;;;;;;;;5078908;28;20838;-58
2023/01/22 00:55:13;;;;;;;4.40;2.60;;;;;;;;;;5069727;28;20229;-58
2023/01/22 00:57:40;;;;;;;6.33;2.73;;;;;;;;;;5072351;28;20234;-58
2023/01/22 01:00:07;;;;;;;3.90;2.97;;;;;;;;;;5078965;28;20234;-58
2023/01/22 01:03:25;;;;;;;4.77;2.97;;;;;;;;;;5068897;28;20414;-58
2023/01/22 01:05:21;;;;;;;2.83;2.63;;;;;;;;;;5060397;28;20226;-58
2023/01/22 01:07:48;;;;;;;3.23;2.93;;;;;;;;;;5068991;28;20263;-58
2023/01/22 01:10:14;;;;;;;4.53;2.87;;;;;;;;;;5078919;28;20246;-58
2023/01/22 01:12:41;;;;;;;3.63;2.73;;;;;;;;;;5068325;28;20233;-59
2023/01/22 01:15:08;;;;;;;4.20;2.50;;;;;;;;;;5080629;28;20252;-59
2023/01/22 01:17:34;;;;;;;3.10;2.80;;;;;;;;;;5060592;28;20235;-58
2023/01/22 01:20:01;;;;;;;4.07;2.60;;;;;;;;;;5066420;28;20334;-58
2023/01/22 01:22:29;;;;;;;6.20;2.87;;;;;;;;;;5048555;28;20230;-58
2023/01/22 01:24:56;;;;;;;3.33;2.53;;;;;;;;;;5069039;28;20320;-58
2023/01/22 01:27:23;;;;;;;3.10;2.80;;;;;;;;;;5068402;28;20227;-58
2023/01/22 01:29:50;;;;;;;2.63;2.43;;;;;;;;;;5075212;28;20762;-58
2023/01/22 01:32:16;;;;;;;3.30;3.00;;;;;;;;;;5084828;28;20234;-58
2023/01/22 01:34:44;;;;;;;3.03;2.40;;;;;;;;;;5072547;28;20241;-58
2023/01/22 01:37:10;;;;;;;4.47;2.60;;;;;;;;;;5067925;28;20241;-58
2023/01/22 01:39:38;;;;;;;5.13;3.17;;;;;;;;;;5078907;28;20236;-58
2023/01/22 01:42:05;;;;;;;3.73;3.33;;;;;;;;;;5074926;28;20236;-58
2023/01/22 01:44:32;;;;;;;3.53;3.20;;;;;;;;;;5068908;28;20245;-58
2023/01/22 01:47:04;;;;;;;3.07;2.87;;;;;;;;;;5067467;28;20233;-58
2023/01/22 01:49:33;;;;;;;2.63;2.43;;;;;;;;;;5068452;28;20240;-58
2023/01/22 01:52:01;;;;;;;3.80;2.83;;;;;;;;;;5067228;28;20238;-58
2023/01/22 01:54:28;;;;;;;2.83;2.63;;;;;;;;;;5070948;28;20612;-58
2023/01/22 01:57:00;;;;;;;3.77;2.47;;;;;;;;;;5067415;28;20244;-58
2023/01/22 01:59:27;;;;;;;2.90;2.60;;;;;;;;;;5071739;28;20321;-57
2023/01/22 02:01:55;;;;;;;5.30;2.93;;;;;;;;;;5051646;28;20234;-58
2023/01/22 02:04:22;;;;;;;4.13;3.17;;;;;;;;;;5070954;28;20618;-58
2023/01/22 02:06:48;;;;;;;4.43;3.23;;;;;;;;;;5058718;28;20321;-58
2023/01/22 02:09:16;;;;;;;4.07;2.70;;;;;;;;;;5074221;28;20299;-58
2023/01/22 02:11:42;;;;;;;2.47;2.27;;;;;;;;;;5055114;28;20757;-58
2023/01/22 02:14:13;;;;;;;3.47;3.17;;;;;;;;;;5075840;28;20233;-58
2023/01/22 02:16:39;;;;;;;2.47;2.27;;;;;;;;;;5077954;28;20319;-57
2023/01/22 02:19:06;;;;;;;4.23;2.60;;;;;;;;;;5065259;28;20242;-58
2023/01/22 02:21:35;;;;;;;5.83;3.13;;;;;;;;;;5052683;28;20241;-57
2023/01/22 02:24:02;;;;;;;2.60;2.40;;;;;;;;;;5057677;28;20714;-58
2023/01/22 02:26:29;;;;;;;4.50;2.80;;;;;;;;;;5076875;28;20240;-58
2023/01/22 02:28:56;;;;;;;2.90;2.70;;;;;;;;;;5078661;28;20277;-57
2023/01/22 02:31:23;;;;;;;3.77;3.33;;;;;;;;;;5070726;28;20581;-58
2023/01/22 02:33:49;;;;;;;2.50;2.30;;;;;;;;;;5082910;28;20254;-58
2023/01/22 02:36:16;;;;;;;2.40;2.20;;;;;;;;;;5067988;28;20325;-58
2023/01/22 02:38:44;;;;;;;2.47;2.30;;;;;;;;;;5055250;28;20245;-57
2023/01/22 02:41:11;;;;;;;2.70;2.50;;;;;;;;;;5068401;28;20323;-58
2023/01/22 02:43:38;;;;;;;2.70;2.50;;;;;;;;;;5077870;28;20230;-58
2023/01/22 02:46:05;;;;;;;3.00;2.20;;;;;;;;;;5073338;28;20234;-57
2023/01/22 02:48:31;;;;;;;2.90;2.67;;;;;;;;;;5073677;28;20288;-58
2023/01/22 02:50:58;;;;;;;2.73;2.53;;;;;;;;;;5069641;28;20326;-57
2023/01/22 02:53:25;;;;;;;3.03;2.73;;;;;;;;;;5065724;28;20877;-58
2023/01/22 02:55:53;;;;;;;2.67;2.47;;;;;;;;;;5076872;28;20241;-57
2023/01/22 02:58:20;;;;;;;2.37;2.17;;;;;;;;;;5075513;28;20237;-57
2023/01/22 03:00:46;;;;;;;3.47;2.73;;;;;;;;;;5081288;28;20240;-57
2023/01/22 03:03:15;;;;;;;2.60;2.40;;;;;;;;;;5077464;28;20232;-57
2023/01/22 03:05:43;;;;;;;2.37;2.00;;;;;;;;;;5061067;28;20242;-58
2023/01/22 03:08:10;;;;;;;2.60;2.40;;;;;;;;;;5077679;28;20234;-57
2023/01/22 03:10:36;;;;;;;2.40;2.20;;;;;;;;;;5074368;28;20258;-58
2023/01/22 03:21:17;;;;;;;2.03;1.93;;;;;;;;;;5070505;28;20252;-58
2023/01/22 03:23:44;;;;;;;1.67;1.57;;;;;;;;;;5078315;28;21055;-58
2023/01/22 03:26:11;;;;;;;3.17;2.23;;;;;;;;;;5069877;28;20235;-57
2023/01/22 03:28:39;;;;;;;2.70;2.20;;;;;;;;;;5051493;28;20230;-57
2023/01/22 03:31:06;;;;;;;2.43;2.23;;;;;;;;;;5065142;28;20692;-58
2023/01/22 03:33:34;;;;;;;2.50;2.30;;;;;;;;;;5077575;28;20234;-58
2023/01/22 03:36:01;;;;;;;2.43;2.23;;;;;;;;;;5081132;28;20257;-57
2023/01/22 03:38:28;;;;;;;4.50;2.17;;;;;;;;;;5063720;28;20242;-57
2023/01/22 03:41:01;;;;;;;1.90;1.80;;;;;;;;;;5051946;28;20242;-58
2023/01/22 03:43:28;;;;;;;2.50;2.30;;;;;;;;;;5089896;28;20315;-57
2023/01/22 03:46:00;;;;;;;4.63;2.43;;;;;;;;;;5060641;28;20317;-58
2023/01/22 03:48:27;;;;;;;2.27;2.07;;;;;;;;;;5052592;28;20246;-58
2023/01/22 03:50:54;;;;;;;2.17;1.97;;;;;;;;;;5071832;28;20230;-58
2023/01/22 03:53:21;;;;;;;2.30;1.97;;;;;;;;;;5058445;28;20246;-57
2023/01/22 03:55:56;;;;;;;3.17;2.00;;;;;;;;;;5064577;28;20230;-58
2023/01/22 03:58:22;;;;;;;2.43;2.13;;;;;;;;;;5076816;28;20290;-57
2023/01/22 04:00:49;;;;;;;2.33;2.13;;;;;;;;;;5071591;28;20237;-57
2023/01/22 04:03:17;;;;;;;1.90;1.80;;;;;;;;;;5055487;28;20231;-57
2023/01/22 04:05:44;;;;;;;2.50;2.30;;;;;;;;;;5072519;28;20233;-57
2023/01/22 04:08:11;;;;;;;2.37;2.17;;;;;;;;;;5071740;28;20280;-57
2023/01/22 04:10:38;;;;;;;2.93;2.63;;;;;;;;;;5060367;28;20233;-57
2023/01/22 04:13:04;;;;;;;2.70;2.50;;;;;;;;;;5075271;28;20251;-58
2023/01/22 04:15:33;;;;;;;3.03;2.13;;;;;;;;;;5080339;28;20240;-57
2023/01/22 04:18:00;;;;;;;2.40;2.20;;;;;;;;;;5058030;28;20320;-57
2023/01/22 04:20:28;;;;;;;2.67;2.47;;;;;;;;;;5057880;28;20234;-57
2023/01/22 04:22:55;;;;;;;2.53;2.33;;;;;;;;;;5067191;28;25925;-58
2023/01/22 04:25:22;;;;;;;2.63;2.43;;;;;;;;;;5082453;28;20319;-57
2023/01/22 04:27:48;;;;;;;2.73;2.50;;;;;;;;;;5067347;28;20303;-58
2023/01/22 04:30:16;;;;;;;4.23;2.37;;;;;;;;;;5067502;28;20710;-57
2023/01/22 04:32:44;;;;;;;3.13;2.67;;;;;;;;;;5061216;28;20615;-57
2023/01/22 04:35:10;;;;;;;2.80;2.60;;;;;;;;;;5065731;28;20239;-57
2023/01/22 04:37:38;;;;;;;3.33;2.83;;;;;;;;;;5052542;28;20238;-57
2023/01/22 04:40:05;;;;;;;2.53;2.33;;;;;;;;;;5058677;28;20234;-57
2023/01/22 04:42:32;;;;;;;3.23;2.50;;;;;;;;;;5077323;28;20256;-57
2023/01/22 04:44:59;;;;;;;2.80;2.60;;;;;;;;;;5062386;28;20244;-57
2023/01/22 04:47:26;;;;;;;2.97;2.77;;;;;;;;;;5052383;28;20373;-58
2023/01/22 04:49:52;;;;;;;3.23;2.93;;;;;;;;;;5058418;28;20245;-57
2023/01/22 04:52:19;;;;;;;2.80;2.60;;;;;;;;;;5072912;28;20310;-57
2023/01/22 04:54:48;;;;;;;2.90;2.70;;;;;;;;;;5054264;28;20243;-57
2023/01/22 04:57:15;;;;;;;3.00;2.80;;;;;;;;;;5053729;28;20820;-57
2023/01/22 04:59:41;;;;;;;3.27;2.97;;;;;;;;;;5051555;28;20326;-57
2023/01/22 05:02:08;;;;;;;3.93;3.50;;;;;;;;;;5062522;28;20231;-57
2023/01/22 05:04:35;;;;;;;3.63;3.30;;;;;;;;;;5068949;28;20806;-58
2023/01/22 05:07:01;;;;;;;2.90;2.70;;;;;;;;;;5051271;28;20345;-57
2023/01/22 05:09:28;;;;;;;3.17;2.60;;;;;;;;;;5055187;28;20695;-57
2023/01/22 05:11:56;;;;;;;3.03;2.83;;;;;;;;;;5072514;28;20234;-58
2023/01/22 05:14:23;;;;;;;3.07;2.73;;;;;;;;;;5076689;28;20248;-57
2023/01/22 05:16:49;;;;;;;4.33;3.40;;;;;;;;;;5077624;28;20739;-57
2023/01/22 05:19:16;;;;;;;3.20;2.90;;;;;;;;;;5059023;28;20230;-57
2023/01/22 05:21:43;;;;;;;3.83;3.43;;;;;;;;;;5055423;28;20242;-57
2023/01/22 05:24:09;;;;;;;3.27;2.97;;;;;;;;;;5054405;28;20317;-57
2023/01/22 05:26:36;;;;;;;3.43;3.17;;;;;;;;;;5061212;28;20397;-58
2023/01/22 05:29:04;;;;;;;4.43;3.43;;;;;;;;;;5048448;28;22020;-57
2023/01/22 05:31:31;;;;;;;3.73;3.43;;;;;;;;;;5084368;28;20284;-57
2023/01/22 05:33:57;;;;;;;4.17;3.07;;;;;;;;;;5074735;28;20240;-57
2023/01/22 05:36:24;;;;;;;4.53;3.53;;;;;;;;;;5075100;28;20313;-58
2023/01/22 05:38:50;;;;;;;4.37;3.57;;;;;;;;;;5072194;28;20230;-57
2023/01/22 05:41:17;;;;;;;5.37;4.10;;;;;;;;;;5081221;28;20237;-57
2023/01/22 05:43:43;;;;;;;3.90;3.30;;;;;;;;;;5075091;28;20354;-57
2023/01/22 05:46:11;;;;;;;4.20;3.80;;;;;;;;;;5083314;28;20707;-57
2023/01/22 05:48:38;;;;;;;4.23;3.93;;;;;;;;;;5065091;28;20233;-57
2023/01/22 05:51:06;;;;;;;4.97;3.77;;;;;;;;;;5082236;28;20276;-57
2023/01/22 05:53:33;;;;;;;4.67;3.43;;;;;;;;;;5068099;28;20295;-57
2023/01/22 05:56:01;;;;;;;4.30;3.90;;;;;;;;;;5055086;28;20642;-57
2023/01/22 05:58:28;;;;;;;4.33;3.93;;;;;;;;;;5057063;28;20318;-57
2023/01/22 06:00:54;;;;;;;3.57;3.27;;;;;;;;;;5080594;28;20236;-57
2023/01/22 06:03:22;;;;;;;4.03;3.73;;;;;;;;;;5074417;28;20317;-57
2023/01/22 06:05:56;;;;;;;3.50;3.20;;;;;;;;;;5063074;28;20266;-57
2023/01/22 06:08:23;;;;;;;3.77;3.43;;;;;;;;;;5059979;28;20286;-57
2023/01/22 06:10:49;;;;;;;3.90;3.30;;;;;;;;;;5075536;28;20284;-58
2023/01/22 06:13:16;;;;;;;4.63;3.23;;;;;;;;;;5079767;28;20252;-58
2023/01/22 06:15:43;;;;;;;5.90;3.73;;;;;;;;;;5083442;28;20280;-59
2023/01/22 06:18:10;;;;;;;3.63;3.33;;;;;;;;;;5077360;28;20242;-57
2023/01/22 06:20:37;;;;;;;4.80;4.07;;;;;;;;;;5052735;28;20627;-58
2023/01/22 06:23:04;;;;;;;4.43;3.97;;;;;;;;;;5062983;28;20324;-57
2023/01/22 06:25:31;;;;;;;4.53;3.53;;;;;;;;;;5057737;28;20268;-57
2023/01/22 06:27:57;;;;;;;4.23;3.80;;;;;;;;;;5059926;28;20288;-57
2023/01/22 06:30:23;;;;;;;5.73;3.83;;;;;;;;;;5052825;28;20230;-59
2023/01/22 06:32:51;;;;;;;4.43;4.03;;;;;;;;;;5063467;28;20237;-59
2023/01/22 06:35:18;;;;;;;4.20;3.80;;;;;;;;;;5083449;28;20774;-59
2023/01/22 06:37:46;;;;;;;4.03;3.63;;;;;;;;;;5075895;28;20354;-60
2023/01/22 06:40:13;;;;;;;5.17;3.73;;;;;;;;;;5073344;28;20283;-57
2023/01/22 06:42:40;;;;;;;4.13;3.77;;;;;;;;;;5074972;28;20818;-57
2023/01/22 06:45:07;;;;;;;3.60;3.30;;;;;;;;;;5078469;28;20252;-58
2023/01/22 06:47:34;;;;;;;3.60;3.30;;;;;;;;;;5080527;28;20233;-57
2023/01/22 06:50:00;;;;;;;3.90;3.60;;;;;;;;;;5067909;28;20320;-58
2023/01/22 06:52:27;;;;;;;4.70;3.90;;;;;;;;;;5077239;28;20329;-57
2023/01/22 06:54:56;;;;;;;3.90;3.53;;;;;;;;;;5080121;28;20264;-56
2023/01/22 06:57:23;;;;;;;4.93;4.07;;;;;;;;;;5074702;28;20702;-57
2023/01/22 06:59:49;;;;;;;4.50;4.10;;;;;;;;;;5055747;28;20230;-57
2023/01/22 07:02:16;;;;;;;3.43;3.13;;;;;;;;;;5048500;28;20239;-57
2023/01/22 07:04:43;;;;;;;3.83;3.43;;;;;;;;;;5058020;28;20249;-57
2023/01/22 07:07:10;;;;;;;3.80;3.50;;;;;;;;;;5055801;28;20344;-57
2023/01/22 07:09:36;;;;;;;4.30;3.90;;;;;;;;;;5060778;28;20229;-57
2023/01/22 07:12:04;;;;;;;4.93;4.47;;;;;;;;;;5056282;28;20287;-57
2023/01/22 07:14:31;;;;;;;3.60;3.33;;;;;;;;;;5077124;28;20225;-57
2023/01/22 07:16:58;;;;;;;4.93;4.53;;;;;;;;;;5078954;28;20314;-57
2023/01/22 07:19:24;;;;;;;3.43;3.13;;;;;;;;;;5075104;28;20242;-57
2023/01/22 07:21:51;;;;;;;3.63;3.33;;;;;;;;;;5079243;28;20281;-57
2023/01/22 07:24:18;;;;;;;5.10;3.90;;;;;;;;;;5073379;28;20254;-57
2023/01/22 07:26:45;;;;;;;7.57;4.37;;;;;;;;;;5081546;28;20233;-57
2023/01/22 07:29:13;;;;;;;6.17;4.30;;;;;;;;;;5056579;28;20238;-57
2023/01/22 07:31:39;;;;;;;4.10;3.70;;;;;;;;;;5073536;28;20257;-57
2023/01/22 07:34:06;;;;;;;4.30;3.90;;;;;;;;;;5083893;28;20248;-57
2023/01/22 07:36:33;;;;;;;5.07;4.03;;;;;;;;;;5061750;28;20296;-57
2023/01/22 07:39:02;;;;;;;5.00;4.50;;;;;;;;;;5048088;28;20235;-57
2023/01/22 07:41:29;;;;;;;4.27;3.70;;;;;;;;;;5054798;28;20234;-58
2023/01/22 07:43:58;;;;;;;4.80;3.90;;;;;;;;;;5058532;28;20234;-58
2023/01/22 07:46:26;;;;;;;5.07;4.60;;;;;;;;;;5054195;28;20243;-58
2023/01/22 07:48:53;;;;;;;7.07;4.60;;;;;;;;;;5059102;28;20231;-57
2023/01/22 07:51:20;;;;;;;4.70;3.80;;;;;;;;;;5055998;28;20251;-58
2023/01/22 07:53:46;;;;;;;4.83;4.43;;;;;;;;;;5069108;28;20238;-58
2023/01/22 07:56:13;;;;;;;4.70;4.30;;;;;;;;;;5076905;28;20611;-59
2023/01/22 07:58:40;;;;;;;4.50;4.10;;;;;;;;;;5087195;28;20240;-58
2023/01/22 08:01:07;;;;;;;4.37;3.97;;;;;;;;;;5064266;28;20239;-57
2023/01/22 08:03:36;;;;;;;5.07;4.57;;;;;;;;;;5079282;28;20237;-58
2023/01/22 08:06:07;;;;;;;4.23;3.50;;;;;;;;;;5070433;28;20700;-58
2023/01/22 08:08:34;;;;;;;5.33;3.80;;;;;;;;;;5078448;28;20232;-58
2023/01/22 08:11:01;;;;;;;5.87;4.43;;;;;;;;;;5072226;28;20245;-56
2023/01/22 08:13:27;;;;;;;5.93;4.17;;;;;;;;;;5075318;28;20367;-57
2023/01/22 08:15:54;;;;;;;5.40;4.90;;;;;;;;;;5074036;28;20320;-57
2023/01/22 08:18:21;;;;;;;4.80;4.27;;;;;;;;;;5072162;28;20287;-58
2023/01/22 08:20:49;;;;;;;5.07;4.20;;;;;;;;;;5084044;28;20222;-58
2023/01/22 08:23:16;;;;;;;5.07;4.67;;;;;;;;;;5070939;28;20242;-57
2023/01/22 08:25:42;;;;;;;6.00;5.10;;;;;;;;;;5067214;28;20250;-59
2023/01/22 08:28:17;;;;;;;4.93;4.43;;;;;;;;;;5096068;27;20597;-58
2023/01/22 08:30:44;;;;;;;6.13;4.77;;;;;;;;;;5096548;27;20237;-58
2023/01/22 08:33:10;;;;;;;5.13;4.40;;;;;;;;;;5098575;27;21029;-57
2023/01/22 08:35:38;;;;;;;5.17;4.63;;;;;;;;;;5092892;27;20298;-58
2023/01/22 08:38:05;;;;;;;4.17;3.77;;;;;;;;;;5092327;27;20243;-57
2023/01/22 08:40:31;;;;;;;4.57;4.13;;;;;;;;;;5092199;27;20783;-58
2023/01/22 08:42:58;;;;;;;4.73;4.23;;;;;;;;;;5094875;27;20293;-57
2023/01/22 08:45:26;;;;;;;5.73;4.50;;;;;;;;;;5096795;27;20293;-58
2023/01/22 08:47:56;;;;;;;4.23;3.90;;;;;;;;;;5098013;27;20321;-57
2023/01/22 08:50:23;;;;;;;6.23;4.73;;;;;;;;;;5098612;27;20232;-57
2023/01/22 08:52:49;;;;;;;4.03;3.73;;;;;;;;;;5091200;27;20240;-57
2023/01/22 08:55:16;;;;;;;5.10;4.50;;;;;;;;;;5096066;27;20327;-59
2023/01/22 08:57:42;;;;;;;5.07;4.47;;;;;;;;;;5094640;27;20233;-57
2023/01/22 09:00:10;;;;;;;4.80;4.30;;;;;;;;;;5099612;27;20236;-58
2023/01/22 09:02:37;;;;;;;4.40;4.00;;;;;;;;;;5090207;27;20251;-58
2023/01/22 09:05:04;;;;;;;5.57;5.03;;;;;;;;;;5099560;27;20301;-57
2023/01/22 09:07:31;;;;;;;6.07;5.13;;;;;;;;;;5095773;27;20236;-59
2023/01/22 09:09:57;;;;;;;7.63;5.40;;;;;;;;;;5093653;27;20233;-57
2023/01/22 09:12:24;;;;;;;5.70;5.17;;;;;;;;;;5094161;27;20225;-57
2023/01/22 09:14:50;;;;;;;6.10;5.27;;;;;;;;;;5099752;27;20253;-57
2023/01/22 09:17:17;;;;;;;5.60;5.00;;;;;;;;;;5093416;27;20237;-57
2023/01/22 09:19:45;;;;;;;6.30;4.93;;;;;;;;;;5098962;27;20260;-57
2023/01/22 09:22:12;;;;;;;4.87;4.37;;;;;;;;;;5096463;27;20353;-57
2023/01/22 09:24:38;;;;;;;5.33;4.83;;;;;;;;;;5098295;27;20906;-57
2023/01/22 09:27:05;;;;;;;5.93;5.10;;;;;;;;;;5094024;27;20245;-57
2023/01/22 09:29:31;;;;;;;6.30;5.10;;;;;;;;;;5099130;27;20257;-57
2023/01/22 09:31:58;;;;;;;5.23;4.73;;;;;;;;;;5095150;27;20237;-57
2023/01/22 09:34:24;;;;;;;5.43;4.93;;;;;;;;;;5097840;27;20271;-57
2023/01/22 09:36:52;;;;;;;6.87;5.67;;;;;;;;;;5092135;27;20228;-57
2023/01/22 09:39:18;;;;;;;6.83;5.57;;;;;;;;;;5086635;28;20268;-57
2023/01/22 09:41:47;;;;;;;5.73;5.20;;;;;;;;;;5081125;28;20312;-57
2023/01/22 09:44:17;;;;;;;5.87;4.80;;;;;;;;;;5084595;28;20843;-57
2023/01/22 09:46:45;;;;;;;5.77;5.17;;;;;;;;;;5081264;28;20841;-56
2023/01/22 09:49:14;;;;;;;5.37;4.67;;;;;;;;;;5080447;28;20283;-57
2023/01/22 09:51:42;;;;;;;5.30;4.80;;;;;;;;;;5084214;28;20272;-57
2023/01/22 09:54:14;;;;;;;6.83;6.23;;;;;;;;;;5082755;28;20242;-61
2023/01/22 09:56:42;;;;;;;6.97;5.37;;;;;;;;;;5080116;28;20270;-57
2023/01/22 09:59:13;;;;;;;5.37;4.87;;;;;;;;;;5084342;28;20238;-57
2023/01/22 10:01:40;;;;;;;6.87;5.10;;;;;;;;;;5087371;28;20719;-58
2023/01/22 10:04:21;;;;;;;5.40;4.77;;;;;;;;;;5080942;28;20253;-57
2023/01/22 10:06:47;;;;;;;5.50;5.00;;;;;;;;;;5085483;28;20322;-57
2023/01/22 10:09:17;;;;;;;6.43;5.37;;;;;;;;;;5082069;28;20249;-57
2023/01/22 10:11:45;;;;;;;7.20;6.23;;;;;;;;;;5081641;28;20237;-57
2023/01/22 10:14:15;;;;;;;7.67;5.67;;;;;;;;;;5085908;28;20238;-57
2023/01/22 10:16:44;;;;;;;6.93;6.23;;;;;;;;;;5083925;28;20325;-57
2023/01/22 10:19:14;;;;;;;5.63;5.10;;;;;;;;;;5078943;28;20736;-58
2023/01/22 10:21:43;;;;;;;7.03;5.63;;;;;;;;;;5082317;28;21043;-57
2023/01/22 10:24:10;;;;;;;6.50;5.83;;;;;;;;;;5081601;28;20609;-56
2023/01/22 10:26:39;;;;;;;6.73;6.03;;;;;;;;;;5080589;28;20234;-57
2023/01/22 10:29:07;;;;;;;6.53;5.57;;;;;;;;;;5086019;28;20932;-57
2023/01/22 10:31:34;;;;;;;5.40;4.90;;;;;;;;;;5085094;28;20397;-57
2023/01/22 10:34:02;;;;;;;6.30;4.53;;;;;;;;;;5081263;28;20250;-57
2023/01/22 10:36:29;;;;;;;6.43;4.93;;;;;;;;;;5081058;28;20238;-57
2023/01/22 10:39:04;;;;;;;6.50;5.80;;;;;;;;;;5083571;28;20639;-57
2023/01/22 10:41:30;;;;;;;8.30;5.53;;;;;;;;;;5083108;28;20328;-57
2023/01/22 10:44:08;;;;;;;5.90;5.17;;;;;;;;;;5082500;27;20222;-57
2023/01/22 10:46:35;;;;;;;6.77;6.03;;;;;;;;;;5080562;27;20685;-57
2023/01/22 10:49:02;;;;;;;6.60;5.93;;;;;;;;;;5079769;27;20249;-56
2023/01/22 10:51:31;;;;;;;7.50;6.80;;;;;;;;;;5076148;28;20238;-57
2023/01/22 10:53:58;;;;;;;7.17;5.30;;;;;;;;;;5074236;28;20802;-57
2023/01/22 10:56:27;;;;;;;5.67;4.97;;;;;;;;;;5080434;28;20238;-57
2023/01/22 10:58:55;;;;;;;6.33;5.73;;;;;;;;;;5082288;28;20257;-57
2023/01/22 11:01:27;;;;;;;6.30;5.40;;;;;;;;;;5082280;28;20241;-57
2023/01/22 11:03:53;;;;;;;8.30;5.90;;;;;;;;;;5078326;28;20893;-57
2023/01/22 11:06:22;;;;;;;6.97;6.23;;;;;;;;;;5080908;28;20239;-57
2023/01/22 11:08:51;;;;;;;6.93;6.07;;;;;;;;;;5082514;28;20236;-57
2023/01/22 11:11:20;;;;;;;7.53;6.27;;;;;;;;;;5080955;28;20291;-58
2023/01/22 11:13:50;;;;;;;11.77;5.70;;;;;;;;;;5082653;28;20231;-57
2023/01/22 11:16:18;;;;;;;6.77;6.07;;;;;;;;;;5082995;28;20712;-57
2023/01/22 11:18:49;;;;;;;7.60;5.80;;;;;;;;;;5080180;28;20233;-57
2023/01/22 11:21:16;;;;;;;6.80;6.20;;;;;;;;;;5081399;28;20261;-57
2023/01/22 11:23:47;;;;;;;7.20;6.40;;;;;;;;;;5078772;27;20300;-56
2023/01/22 11:26:17;;;;;;;7.93;6.80;;;;;;;;;;5076987;28;20962;-57
2023/01/22 11:28:48;;;;;;;6.87;6.20;;;;;;;;;;5081923;28;20249;-57
2023/01/22 11:31:22;;;;;;;6.10;5.50;;;;;;;;;;5081082;28;20639;-57
2023/01/22 11:34:04;;;;;;;6.87;5.63;;;;;;;;;;5079317;28;20237;-57
2023/01/22 11:36:33;;;;;;;6.23;5.63;;;;;;;;;;5080090;28;20325;-57
2023/01/22 11:39:08;;;;;;;10.27;6.40;;;;;;;;;;5081587;28;20906;-57
2023/01/22 11:41:43;;;;;;;6.33;5.73;;;;;;;;;;5078393;28;20286;-58
2023/01/22 11:44:25;;;;;;;7.53;6.63;;;;;;;;;;5077944;28;20307;-57
2023/01/22 11:46:59;;;;;;;5.53;5.03;;;;;;;;;;5079632;28;20861;-57
2023/01/22 11:49:33;;;;;;;7.30;6.30;;;;;;;;;;5080305;28;20226;-57
2023/01/22 11:52:06;;;;;;;8.20;6.33;;;;;;;;;;5077998;28;20229;-57
2023/01/22 11:54:39;;;;;;;6.87;6.17;;;;;;;;;;5080397;28;20237;-57
2023/01/22 11:57:09;;;;;;;7.80;6.30;;;;;;;;;;5083695;28;20317;-57
2023/01/22 11:59:41;;;;;;;6.53;5.87;;;;;;;;;;5079664;28;20225;-56
2023/01/22 12:02:18;;;;;;;6.17;5.57;;;;;;;;;;5078764;28;20246;-57
2023/01/22 12:05:01;;;;;;;7.97;7.17;;;;;;;;;;5078884;28;20291;-57
2023/01/22 12:07:44;;;;;;;6.77;5.63;;;;;;;;;;5078945;28;20491;-57
2023/01/22 12:10:33;;;;;;;7.30;6.23;;;;;;;;;;5082299;28;20223;-56
2023/01/22 12:13:04;;;;;;;8.63;5.60;;;;;;;;;;5078757;28;20229;-57
2023/01/22 12:15:37;;;;;;;8.60;6.33;;;;;;;;;;5080712;28;20235;-57
2023/01/22 12:18:10;;;;;;;7.40;6.60;;;;;;;;;;5080498;28;20325;-56
2023/01/22 12:20:49;;;;;;;7.73;6.90;;;;;;;;;;5080182;28;20501;-56
2023/01/22 12:23:19;;;;;;;7.43;5.90;;;;;;;;;;5074296;28;20607;-57
2023/01/22 12:25:48;;;;;;;6.67;5.93;;;;;;;;;;5076177;28;20325;-56
2023/01/22 12:28:16;;;;;;;7.73;6.97;;;;;;;;;;5078617;28;20803;-57
2023/01/22 12:30:47;;;;;;;8.10;6.80;;;;;;;;;;5080477;28;20226;-57
2023/01/22 12:33:16;;;;;;;7.60;6.87;;;;;;;;;;5071806;28;20244;-57
2023/01/22 12:35:43;;;;;;;8.27;7.17;;;;;;;;;;5084078;28;20246;-57
2023/01/22 12:38:15;;;;;;;8.77;7.53;;;;;;;;;;5080253;28;20242;-59
2023/01/22 12:40:59;;;;;;;7.43;6.70;;;;;;;;;;5075711;28;20230;-57
2023/01/22 12:43:31;;;;;;;7.43;6.57;;;;;;;;;;5076564;28;20229;-57
2023/01/22 12:46:02;;;;;;;10.80;6.97;;;;;;;;;;5078372;28;20230;-57
2023/01/22 12:48:31;;;;;;;8.20;7.07;;;;;;;;;;5078107;28;20245;-57
2023/01/22 12:50:58;;;;;;;8.27;7.00;;;;;;;;;;5079110;28;20317;-56
2023/01/22 12:53:27;;;;;;;10.00;8.20;;;;;;;;;;5079216;28;20260;-57
2023/01/22 12:55:57;;;;;;;9.23;7.00;;;;;;;;;;5076492;28;20230;-56
2023/01/22 12:58:26;;;;;;;10.27;8.07;;;;;;;;;;5075266;28;20234;-57
2023/01/22 13:00:59;;;;;;;8.27;7.20;;;;;;;;;;5078428;28;20252;-59
2023/01/22 13:03:28;;;;;;;11.10;7.40;;;;;;;;;;5080353;28;20291;-56
2023/01/22 13:05:54;;;;;;;9.53;7.10;;;;;;;;;;5078543;28;20237;-57
2023/01/22 13:08:28;;;;;;;10.63;7.97;;;;;;;;;;5078313;28;20241;-57
2023/01/22 13:10:55;;;;;;;10.67;7.33;;;;;;;;;;5075941;27;20231;-58
2023/01/22 13:13:23;;;;;;;9.00;6.93;;;;;;;;;;5078934;28;20242;-57
2023/01/22 13:15:54;;;;;;;9.87;8.43;;;;;;;;;;5085725;28;20237;-58
2023/01/22 13:18:23;;;;;;;8.30;7.23;;;;;;;;;;5084999;28;20341;-58
2023/01/22 13:20:56;;;;;;;8.43;7.40;;;;;;;;;;5082425;28;20253;-58
2023/01/22 13:23:23;;;;;;;11.00;7.90;;;;;;;;;;5078588;28;20720;-58
2023/01/22 13:25:54;;;;;;;9.63;8.60;;;;;;;;;;5077803;28;20234;-58
2023/01/22 13:28:21;;;;;;;10.50;7.57;;;;;;;;;;5083559;28;20389;-58
2023/01/22 13:30:55;;;;;;;8.27;7.00;;;;;;;;;;5088793;28;20241;-59
2023/01/22 13:33:22;;;;;;;8.87;7.37;;;;;;;;;;5083105;28;20242;-57
2023/01/22 13:35:48;;;;;;;9.13;7.80;;;;;;;;;;5084978;28;20298;-56
2023/01/22 13:38:19;;;;;;;9.70;7.93;;;;;;;;;;5083755;28;20328;-57
2023/01/22 13:40:48;;;;;;;10.97;8.30;;;;;;;;;;5083719;28;20677;-57
2023/01/22 13:43:17;;;;;;;10.67;8.50;;;;;;;;;;5082838;27;20233;-57
2023/01/22 13:45:44;;;;;;;10.90;8.17;;;;;;;;;;5087438;28;20237;-58
2023/01/22 13:48:14;;;;;;;11.17;8.80;;;;;;;;;;5086035;28;20244;-57
2023/01/22 13:50:41;;;;;;;10.57;8.00;;;;;;;;;;5085871;28;20301;-57
2023/01/22 13:53:11;;;;;;;11.90;8.70;;;;;;;;;;5083683;28;20269;-57
2023/01/22 13:55:37;;;;;;;11.00;8.63;;;;;;;;;;5084246;28;20226;-57
2023/01/22 13:58:05;;;;;;;9.90;8.87;;;;;;;;;;5090577;28;20593;-57
2023/01/22 14:00:35;;;;;;;10.63;8.67;;;;;;;;;;5085299;28;20245;-56
2023/01/22 14:03:02;;;;;;;10.90;8.93;;;;;;;;;;5084694;28;20233;-56
2023/01/22 14:05:31;;;;;;;12.33;9.27;;;;;;;;;;5083506;28;20230;-57
2023/01/22 14:08:06;;;;;;;10.90;8.57;;;;;;;;;;5083629;28;20225;-58
2023/01/22 14:10:32;;;;;;;12.07;8.70;;;;;;;;;;5081560;28;20232;-57
2023/01/22 14:13:00;;;;;;;10.57;8.80;;;;;;;;;;5078841;28;20226;-56
2023/01/22 14:15:26;;;;;;;11.80;9.40;;;;;;;;;;5082951;28;20279;-57
2023/01/22 14:18:05;;;;;;;10.53;8.47;;;;;;;;;;5088929;28;20246;-57
2023/01/22 14:20:31;;;;;;;10.83;8.27;;;;;;;;;;5089559;27;20245;-57
2023/01/22 14:22:58;;;;;;;10.03;8.63;;;;;;;;;;5082818;28;20236;-57
2023/01/22 14:25:24;;;;;;;13.13;9.43;;;;;;;;;;5088715;28;20229;-57
2023/01/22 14:27:51;;;;;;;12.80;8.97;;;;;;;;;;5087387;28;20311;-57
2023/01/22 14:30:19;;;;;;;14.87;9.30;;;;;;;;;;5081547;28;20324;-57
2023/01/22 14:32:46;;;;;;;15.83;9.80;;;;;;;;;;5087497;28;20230;-57
2023/01/22 14:35:16;;;;;;;11.67;8.47;;;;;;;;;;5086456;28;20252;-57
2023/01/22 14:37:43;;;;;;;14.03;9.37;;;;;;;;;;5086741;28;20230;-57
2023/01/22 14:40:10;;;;;;;14.67;9.00;;;;;;;;;;5085727;28;20317;-57
2023/01/22 14:42:37;;;;;;;10.73;8.83;;;;;;;;;;5099921;28;20230;-56
2023/01/22 14:45:04;;;;;;;14.00;9.27;;;;;;;;;;5085288;28;20318;-56
2023/01/22 14:47:30;;;;;;;11.43;8.67;;;;;;;;;;5075691;28;20234;-57
2023/01/22 14:49:57;;;;;;;9.93;7.97;;;;;;;;;;5081750;28;20789;-57
2023/01/22 14:52:25;;;;;;;12.93;8.87;;;;;;;;;;5086074;27;20257;-58
2023/01/22 14:54:53;;;;;;;12.37;9.70;;;;;;;;;;5078403;27;20693;-57